Terminal Aerodrome Forecast
Issued by NWS

Home | Current Version | Previous Version | Text Only | Print | Product List | Glossary Off
Versions: 1 2 3 4 5 6 7 8 9 10 11 12

000
FTUS42 KMHX 121140
TAFOAJ
TAF
KOAJ 121140Z 1212/1312 22007KT P6SM SKC
     FM121700 26010G18KT P6SM BKN050
     FM130100 28010G18KT P6SM SCT050
     FM130500 30008KT P6SM SKC
      AMD LTD TO CLD VIS AND WIND=

USA.gov is the U.S. government's official web portal to all federal, state and local government web resources and services.